Galgate, United Kingdom
Current Conditions -  °F | °C
As of 8:20 AM on Tuesday 27 Jan 2015 (Local Time) from EGNO Reporting Station
Broken Clouds Broken Clouds  
Wind Chill: 38°   Ceiling: 4000
Heat Index: 45°   Visibility: 6mi
Dew Point: 43°   Wind: 14mph
Humidity: 93%   Direction: 280°W
Pressure: 30.3"   Gusts: NA
Location:  53.98°N, 2.78°W
Report Text: EGNO 270820Z 28012KT 9999 FEW008 SCT024 BKN040 07/06 Q1026
Loading
Personal Weather Stations






























Interactive Weather Map New forecast layout! Learn more

10-Day Weather Forecast

Advertisements
Track Severe Weather on mobile